Burton, MI (48519)

5:34 PM EDT on September 01, 2015 (GMT -0400)
Burton - wxbeacon.com | | Change Station
CLOSE
Current Station
Personal Weather Station
Location: Burton, MI
Elevation: 766 ft
Nearby Weather Stations

Elev 766 ft 43.03 °N, 83.59 °W | Updated 3 minutes ago

Clear
Clear
88.4 °F
Feels Like 89 °F
N
1.0
Wind Variable Wind from WNW
Gusts 8.0 mph

Today
High -- | Low -- °F
--% Chance of Precip.
Yesterday
High -- | Low -- °F
Precip. -- in
6:58 AM 8:09 PM
Waning Gibbous, 86% visible
Pressure 30.02 in
Visibility 10.0 miles
Clouds Few 5000 ft
Heat Index 89 °F
Dew Point 63 °F
Humidity 43%
Rainfall 0.00 in
Snow Depth Not available.
UV 4 out of 12
Pollen 10.60 out of 12
Air Quality Not available.
Flu Activity Not available.
METAR KFNT 012053Z 23010KT 10SM FEW050 32/18 A3003 RMK AO2 SLP164 T03220178 56012
Pressure 30.02 in
Visibility 10.0 miles
Clouds Few 5000 ft
Heat Index 89 °F
Dew Point 63 °F
Humidity 43%
Rainfall 0.00 in
Snow Depth Not available.
UV 4 out of 12
Pollen 10.60 out of 12
Air Quality Not available.
Flu Activity Not available.
METAR KFNT 012053Z 23010KT 10SM FEW050 32/18 A3003 RMK AO2 SLP164 T03220178 56012

10-Day Weather Forecast

×

Almanac

Astronomy

Sep. 01, 2015 Rise Set
Actual Time
Civil Twilight
Nautical Twilight
Astronomical Twilight
Moon
Length of Visible Light
Length of Day
Tomorrow will be .
, % of the Moon is Illuminated

Today's Extremes

State Highs State Lows

Community

WunderPhotos

Upload Photos

1,851,628 photos uploaded!

WunderBlogs® & News

Nearby

Air Quality

  Air Quality AQ Index Pollutant
Not available.

Snow Depth

Station Depth Elevation

Earthquake Activity

City Distance Mag. Time & Date
Minimum magnitude displayed is 2.5.

Coastal Water Temperatures

Place Temperature

Stations

Nearby Weather Stations

Station Location Temp. Windchill Dew Point Humidity Wind Precip. Elev Updated Type